Enderlin, North Dakota
Current Conditions -  °F | °C
As of 8:15 AM on Tuesday 27 Jan 2015 (Local Time) from KGWR Reporting Station
Overcast Overcast  
Wind Chill: 21°   Ceiling: 100
Heat Index: 30°   Visibility: 0mi
Dew Point: 30°   Wind: 10mph
Humidity: 100%   Direction: 130°SE
Pressure: 30.04"   Gusts: NA
Location:  46.62°N, 97.6°W
Report Text: KGWR 271415Z AUTO 13009KT M1/4SM OVC001 M01/M01 A3004 RMK A01 P000
Loading
Personal Weather Stations






























Interactive Weather Map New forecast layout! Learn more

10-Day Weather Forecast

Advertisements
Track Severe Weather on mobile